sensor_id;sensor_type;location;lat;lon;timestamp;temperature;humidity
42841;DHT22;28491;46.898;7.660;2023-08-06T00:00:23;16.20;1.00
42841;DHT22;28491;46.898;7.660;2023-08-06T00:02:49;16.10;1.00
42841;DHT22;28491;46.898;7.660;2023-08-06T00:05:15;16.10;1.00
42841;DHT22;28491;46.898;7.660;2023-08-06T00:07:48;16.10;1.00
42841;DHT22;28491;46.898;7.660;2023-08-06T00:10:14;16.10;1.00
42841;DHT22;28491;46.898;7.660;2023-08-06T00:12:39;16.10;1.00
42841;DHT22;28491;46.898;7.660;2023-08-06T00:15:05;16.10;1.00
42841;DHT22;28491;46.898;7.660;2023-08-06T00:17:31;16.10;1.00
42841;DHT22;28491;46.898;7.660;2023-08-06T00:19:57;16.10;1.00
42841;DHT22;28491;46.898;7.660;2023-08-06T00:22:22;16.10;1.00
42841;DHT22;28491;46.898;7.660;2023-08-06T00:24:48;16.00;1.00
42841;DHT22;28491;46.898;7.660;2023-08-06T00:27:13;16.00;1.00
42841;DHT22;28491;46.898;7.660;2023-08-06T00:29:41;16.10;1.00
42841;DHT22;28491;46.898;7.660;2023-08-06T00:32:07;16.10;1.00
42841;DHT22;28491;46.898;7.660;2023-08-06T00:34:32;16.10;1.00
42841;DHT22;28491;46.898;7.660;2023-08-06T00:36:58;16.00;1.00
42841;DHT22;28491;46.898;7.660;2023-08-06T00:39:23;16.10;1.00
42841;DHT22;28491;46.898;7.660;2023-08-06T00:41:49;16.00;1.00
42841;DHT22;28491;46.898;7.660;2023-08-06T00:44:14;16.00;1.00
42841;DHT22;28491;46.898;7.660;2023-08-06T00:46:40;15.90;1.00
42841;DHT22;28491;46.898;7.660;2023-08-06T00:49:06;16.00;1.00
42841;DHT22;28491;46.898;7.660;2023-08-06T00:51:32;16.10;1.00
42841;DHT22;28491;46.898;7.660;2023-08-06T00:53:58;16.00;1.00
42841;DHT22;28491;46.898;7.660;2023-08-06T00:56:24;16.10;1.00
42841;DHT22;28491;46.898;7.660;2023-08-06T00:58:50;16.00;1.00
42841;DHT22;28491;46.898;7.660;2023-08-06T01:01:16;15.90;1.00
42841;DHT22;28491;46.898;7.660;2023-08-06T01:03:41;16.00;1.00
42841;DHT22;28491;46.898;7.660;2023-08-06T01:06:07;16.00;1.00
42841;DHT22;28491;46.898;7.660;2023-08-06T01:15:04;16.00;1.00
42841;DHT22;28491;46.898;7.660;2023-08-06T01:17:31;16.00;1.00
42841;DHT22;28491;46.898;7.660;2023-08-06T01:19:57;15.90;1.00
42841;DHT22;28491;46.898;7.660;2023-08-06T01:22:23;15.90;1.00
42841;DHT22;28491;46.898;7.660;2023-08-06T01:24:50;16.00;1.00
42841;DHT22;28491;46.898;7.660;2023-08-06T01:27:33;16.00;1.00
42841;DHT22;28491;46.898;7.660;2023-08-06T01:30:09;16.00;1.00
42841;DHT22;28491;46.898;7.660;2023-08-06T01:32:38;16.00;1.00
42841;DHT22;28491;46.898;7.660;2023-08-06T01:35:09;16.00;1.00
42841;DHT22;28491;46.898;7.660;2023-08-06T01:37:36;16.10;1.00
42841;DHT22;28491;46.898;7.660;2023-08-06T01:40:07;16.00;1.00
42841;DHT22;28491;46.898;7.660;2023-08-06T01:42:35;16.00;1.00
42841;DHT22;28491;46.898;7.660;2023-08-06T01:45:00;16.00;1.00
42841;DHT22;28491;46.898;7.660;2023-08-06T01:47:26;16.00;1.00
42841;DHT22;28491;46.898;7.660;2023-08-06T01:49:52;16.10;1.00
42841;DHT22;28491;46.898;7.660;2023-08-06T01:52:17;16.00;1.00
42841;DHT22;28491;46.898;7.660;2023-08-06T01:54:43;16.00;1.00
42841;DHT22;28491;46.898;7.660;2023-08-06T01:57:08;16.00;1.00
42841;DHT22;28491;46.898;7.660;2023-08-06T01:59:34;15.90;1.00
42841;DHT22;28491;46.898;7.660;2023-08-06T02:02:00;16.00;1.00
42841;DHT22;28491;46.898;7.660;2023-08-06T02:04:25;16.00;1.00
42841;DHT22;28491;46.898;7.660;2023-08-06T02:06:51;16.00;1.00
42841;DHT22;28491;46.898;7.660;2023-08-06T02:09:17;15.90;1.00
42841;DHT22;28491;46.898;7.660;2023-08-06T02:11:42;16.00;1.00
42841;DHT22;28491;46.898;7.660;2023-08-06T02:14:08;16.00;1.00
42841;DHT22;28491;46.898;7.660;2023-08-06T02:16:33;16.00;1.00
42841;DHT22;28491;46.898;7.660;2023-08-06T02:18:59;16.00;1.00
42841;DHT22;28491;46.898;7.660;2023-08-06T02:21:24;16.00;1.00
42841;DHT22;28491;46.898;7.660;2023-08-06T02:23:50;16.10;1.00
42841;DHT22;28491;46.898;7.660;2023-08-06T02:26:15;16.00;1.00
42841;DHT22;28491;46.898;7.660;2023-08-06T02:28:41;16.00;1.00
42841;DHT22;28491;46.898;7.660;2023-08-06T02:31:07;16.00;1.00
42841;DHT22;28491;46.898;7.660;2023-08-06T02:33:33;16.00;1.00
42841;DHT22;28491;46.898;7.660;2023-08-06T02:35:59;15.90;1.00
42841;DHT22;28491;46.898;7.660;2023-08-06T02:38:25;15.90;1.00
42841;DHT22;28491;46.898;7.660;2023-08-06T02:40:51;15.90;1.00
42841;DHT22;28491;46.898;7.660;2023-08-06T02:43:16;15.80;1.00
42841;DHT22;28491;46.898;7.660;2023-08-06T02:45:42;15.80;1.00
42841;DHT22;28491;46.898;7.660;2023-08-06T02:48:08;15.80;1.00
42841;DHT22;28491;46.898;7.660;2023-08-06T02:50:42;15.80;1.00
42841;DHT22;28491;46.898;7.660;2023-08-06T02:53:08;15.90;1.00
42841;DHT22;28491;46.898;7.660;2023-08-06T02:55:34;15.80;1.00
42841;DHT22;28491;46.898;7.660;2023-08-06T02:58:01;15.80;1.00
42841;DHT22;28491;46.898;7.660;2023-08-06T03:00:27;15.80;1.00
42841;DHT22;28491;46.898;7.660;2023-08-06T03:02:53;15.80;1.00
42841;DHT22;28491;46.898;7.660;2023-08-06T03:05:19;15.80;1.00
42841;DHT22;28491;46.898;7.660;2023-08-06T03:07:44;15.70;1.00
42841;DHT22;28491;46.898;7.660;2023-08-06T03:10:10;15.80;1.00
42841;DHT22;28491;46.898;7.660;2023-08-06T03:12:36;15.70;1.00
42841;DHT22;28491;46.898;7.660;2023-08-06T03:15:01;15.70;1.00
42841;DHT22;28491;46.898;7.660;2023-08-06T03:17:27;15.70;1.00
42841;DHT22;28491;46.898;7.660;2023-08-06T03:19:53;15.70;1.00
42841;DHT22;28491;46.898;7.660;2023-08-06T03:22:18;15.60;1.00
42841;DHT22;28491;46.898;7.660;2023-08-06T03:24:44;15.70;1.00
42841;DHT22;28491;46.898;7.660;2023-08-06T03:27:09;15.70;1.00
42841;DHT22;28491;46.898;7.660;2023-08-06T03:29:35;15.60;1.00
42841;DHT22;28491;46.898;7.660;2023-08-06T03:32:00;15.60;1.00
42841;DHT22;28491;46.898;7.660;2023-08-06T03:34:26;15.50;1.00
42841;DHT22;28491;46.898;7.660;2023-08-06T03:36:52;15.40;1.00
42841;DHT22;28491;46.898;7.660;2023-08-06T03:39:17;15.40;1.00
42841;DHT22;28491;46.898;7.660;2023-08-06T03:41:43;15.40;1.00
42841;DHT22;28491;46.898;7.660;2023-08-06T03:44:08;15.40;1.00
42841;DHT22;28491;46.898;7.660;2023-08-06T03:46:34;15.40;1.00
42841;DHT22;28491;46.898;7.660;2023-08-06T03:49:03;15.40;1.00
42841;DHT22;28491;46.898;7.660;2023-08-06T03:51:28;15.40;1.00
42841;DHT22;28491;46.898;7.660;2023-08-06T03:53:54;15.40;1.00
42841;DHT22;28491;46.898;7.660;2023-08-06T03:56:19;15.30;1.00
42841;DHT22;28491;46.898;7.660;2023-08-06T03:58:45;15.30;1.00
42841;DHT22;28491;46.898;7.660;2023-08-06T04:01:10;15.30;1.00
42841;DHT22;28491;46.898;7.660;2023-08-06T04:03:36;15.20;1.00
42841;DHT22;28491;46.898;7.660;2023-08-06T04:06:03;15.20;1.00
42841;DHT22;28491;46.898;7.660;2023-08-06T04:08:28;15.20;1.00
42841;DHT22;28491;46.898;7.660;2023-08-06T04:10:54;15.20;1.00
42841;DHT22;28491;46.898;7.660;2023-08-06T04:13:20;15.10;1.00
42841;DHT22;28491;46.898;7.660;2023-08-06T04:15:46;15.10;1.00
42841;DHT22;28491;46.898;7.660;2023-08-06T04:18:11;15.10;1.00
42841;DHT22;28491;46.898;7.660;2023-08-06T04:20:44;15.20;1.00
42841;DHT22;28491;46.898;7.660;2023-08-06T04:23:10;15.10;1.00
42841;DHT22;28491;46.898;7.660;2023-08-06T04:25:36;15.20;1.00
42841;DHT22;28491;46.898;7.660;2023-08-06T04:28:01;15.20;1.00
42841;DHT22;28491;46.898;7.660;2023-08-06T04:30:27;15.10;1.00
42841;DHT22;28491;46.898;7.660;2023-08-06T04:32:52;15.10;1.00
42841;DHT22;28491;46.898;7.660;2023-08-06T04:35:18;15.10;1.00
42841;DHT22;28491;46.898;7.660;2023-08-06T04:37:43;15.00;1.00
42841;DHT22;28491;46.898;7.660;2023-08-06T04:40:09;15.00;1.00
42841;DHT22;28491;46.898;7.660;2023-08-06T04:42:35;15.00;1.00
42841;DHT22;28491;46.898;7.660;2023-08-06T04:45:04;15.00;1.00
42841;DHT22;28491;46.898;7.660;2023-08-06T04:47:30;15.00;1.00
42841;DHT22;28491;46.898;7.660;2023-08-06T04:49:55;15.00;1.00
42841;DHT22;28491;46.898;7.660;2023-08-06T04:52:21;15.00;1.00
42841;DHT22;28491;46.898;7.660;2023-08-06T04:54:46;15.10;1.00
42841;DHT22;28491;46.898;7.660;2023-08-06T04:57:12;15.00;1.00
42841;DHT22;28491;46.898;7.660;2023-08-06T04:59:38;15.10;1.00
42841;DHT22;28491;46.898;7.660;2023-08-06T05:02:04;15.00;1.00
42841;DHT22;28491;46.898;7.660;2023-08-06T05:04:29;15.00;1.00
42841;DHT22;28491;46.898;7.660;2023-08-06T05:06:55;15.00;1.00
42841;DHT22;28491;46.898;7.660;2023-08-06T05:09:20;14.90;1.00
42841;DHT22;28491;46.898;7.660;2023-08-06T05:11:47;14.80;1.00
42841;DHT22;28491;46.898;7.660;2023-08-06T05:14:13;14.80;1.00
42841;DHT22;28491;46.898;7.660;2023-08-06T05:16:39;14.70;1.00
42841;DHT22;28491;46.898;7.660;2023-08-06T05:19:04;14.40;1.00
42841;DHT22;28491;46.898;7.660;2023-08-06T05:21:30;14.40;1.00
42841;DHT22;28491;46.898;7.660;2023-08-06T05:23:55;14.30;1.00
42841;DHT22;28491;46.898;7.660;2023-08-06T05:26:21;14.20;1.00
42841;DHT22;28491;46.898;7.660;2023-08-06T05:28:47;14.10;1.00
42841;DHT22;28491;46.898;7.660;2023-08-06T05:31:12;14.10;5.60
42841;DHT22;28491;46.898;7.660;2023-08-06T05:33:38;14.00;15.10
42841;DHT22;28491;46.898;7.660;2023-08-06T05:36:04;13.90;27.90
42841;DHT22;28491;46.898;7.660;2023-08-06T05:38:30;13.70;40.40
42841;DHT22;28491;46.898;7.660;2023-08-06T05:40:56;13.70;46.90
42841;DHT22;28491;46.898;7.660;2023-08-06T05:43:22;13.70;54.40
42841;DHT22;28491;46.898;7.660;2023-08-06T05:45:49;13.60;46.90
42841;DHT22;28491;46.898;7.660;2023-08-06T05:48:15;13.60;44.90
42841;DHT22;28491;46.898;7.660;2023-08-06T05:50:41;13.60;33.00
42841;DHT22;28491;46.898;7.660;2023-08-06T05:53:07;13.50;38.90
42841;DHT22;28491;46.898;7.660;2023-08-06T05:55:33;13.50;42.10
42841;DHT22;28491;46.898;7.660;2023-08-06T05:57:58;13.50;38.00
42841;DHT22;28491;46.898;7.660;2023-08-06T06:00:24;13.40;27.40
42841;DHT22;28491;46.898;7.660;2023-08-06T06:02:50;13.40;33.60
42841;DHT22;28491;46.898;7.660;2023-08-06T06:05:15;13.30;36.40
42841;DHT22;28491;46.898;7.660;2023-08-06T06:07:41;13.30;37.30
42841;DHT22;28491;46.898;7.660;2023-08-06T06:10:07;13.30;31.30
42841;DHT22;28491;46.898;7.660;2023-08-06T06:12:33;13.40;26.30
42841;DHT22;28491;46.898;7.660;2023-08-06T06:14:58;13.30;36.80
42841;DHT22;28491;46.898;7.660;2023-08-06T06:17:26;13.40;26.50
42841;DHT22;28491;46.898;7.660;2023-08-06T06:19:52;13.50;28.00
42841;DHT22;28491;46.898;7.660;2023-08-06T06:22:17;13.50;33.40
42841;DHT22;28491;46.898;7.660;2023-08-06T06:24:43;13.60;23.70
42841;DHT22;28491;46.898;7.660;2023-08-06T06:27:09;13.60;30.10
42841;DHT22;28491;46.898;7.660;2023-08-06T06:29:34;13.70;24.00
42841;DHT22;28491;46.898;7.660;2023-08-06T06:32:00;13.70;26.80
42841;DHT22;28491;46.898;7.660;2023-08-06T06:34:25;13.70;23.20
42841;DHT22;28491;46.898;7.660;2023-08-06T06:36:51;13.80;22.50
42841;DHT22;28491;46.898;7.660;2023-08-06T06:39:17;13.90;17.80
42841;DHT22;28491;46.898;7.660;2023-08-06T06:41:43;13.90;21.70
42841;DHT22;28491;46.898;7.660;2023-08-06T06:44:09;13.90;20.60
42841;DHT22;28491;46.898;7.660;2023-08-06T06:46:35;13.90;16.50
42841;DHT22;28491;46.898;7.660;2023-08-06T06:49:00;13.90;17.40
42841;DHT22;28491;46.898;7.660;2023-08-06T06:51:27;13.80;9.40
42841;DHT22;28491;46.898;7.660;2023-08-06T06:53:53;13.80;1.00
42841;DHT22;28491;46.898;7.660;2023-08-06T06:56:18;13.70;1.20
42841;DHT22;28491;46.898;7.660;2023-08-06T06:58:44;13.80;9.10
42841;DHT22;28491;46.898;7.660;2023-08-06T07:01:09;13.80;10.50
42841;DHT22;28491;46.898;7.660;2023-08-06T07:03:37;13.80;8.90
42841;DHT22;28491;46.898;7.660;2023-08-06T07:06:03;13.80;1.00
42841;DHT22;28491;46.898;7.660;2023-08-06T07:08:29;13.80;1.00
42841;DHT22;28491;46.898;7.660;2023-08-06T07:11:05;13.80;1.00
42841;DHT22;28491;46.898;7.660;2023-08-06T07:13:31;13.80;1.00
42841;DHT22;28491;46.898;7.660;2023-08-06T07:15:57;13.80;1.00
42841;DHT22;28491;46.898;7.660;2023-08-06T07:18:23;13.80;13.40
42841;DHT22;28491;46.898;7.660;2023-08-06T07:20:50;13.80;12.00
42841;DHT22;28491;46.898;7.660;2023-08-06T07:23:16;13.90;13.60
42841;DHT22;28491;46.898;7.660;2023-08-06T07:25:42;13.90;18.70
42841;DHT22;28491;46.898;7.660;2023-08-06T07:28:08;14.00;19.10
42841;DHT22;28491;46.898;7.660;2023-08-06T07:30:33;14.00;18.20
42841;DHT22;28491;46.898;7.660;2023-08-06T07:33:02;14.00;11.00
42841;DHT22;28491;46.898;7.660;2023-08-06T07:35:28;14.00;16.20
42841;DHT22;28491;46.898;7.660;2023-08-06T07:37:54;14.00;12.80
42841;DHT22;28491;46.898;7.660;2023-08-06T07:40:20;14.10;16.70
42841;DHT22;28491;46.898;7.660;2023-08-06T07:42:45;14.10;19.40
42841;DHT22;28491;46.898;7.660;2023-08-06T07:45:11;14.10;20.30
42841;DHT22;28491;46.898;7.660;2023-08-06T07:47:36;14.10;17.80
42841;DHT22;28491;46.898;7.660;2023-08-06T07:50:02;14.00;15.00
42841;DHT22;28491;46.898;7.660;2023-08-06T07:52:28;14.10;17.20
42841;DHT22;28491;46.898;7.660;2023-08-06T07:54:53;14.00;11.80
42841;DHT22;28491;46.898;7.660;2023-08-06T07:57:19;14.00;24.30
42841;DHT22;28491;46.898;7.660;2023-08-06T07:59:44;13.90;16.20
42841;DHT22;28491;46.898;7.660;2023-08-06T08:02:10;13.90;9.20
42841;DHT22;28491;46.898;7.660;2023-08-06T08:04:35;13.90;8.80
42841;DHT22;28491;46.898;7.660;2023-08-06T08:07:01;13.80;13.00
42841;DHT22;28491;46.898;7.660;2023-08-06T08:09:27;13.90;14.50
42841;DHT22;28491;46.898;7.660;2023-08-06T08:11:53;14.00;22.30
42841;DHT22;28491;46.898;7.660;2023-08-06T08:14:18;14.00;21.90
42841;DHT22;28491;46.898;7.660;2023-08-06T08:16:44;14.10;26.10
42841;DHT22;28491;46.898;7.660;2023-08-06T08:19:10;14.10;19.10
42841;DHT22;28491;46.898;7.660;2023-08-06T08:21:35;14.20;17.20
42841;DHT22;28491;46.898;7.660;2023-08-06T08:24:03;14.20;10.20
42841;DHT22;28491;46.898;7.660;2023-08-06T08:26:29;14.20;4.30
42841;DHT22;28491;46.898;7.660;2023-08-06T08:28:54;14.20;2.20
42841;DHT22;28491;46.898;7.660;2023-08-06T08:31:20;14.20;1.70
42841;DHT22;28491;46.898;7.660;2023-08-06T08:33:46;14.20;5.60
42841;DHT22;28491;46.898;7.660;2023-08-06T08:36:11;14.30;1.00
42841;DHT22;28491;46.898;7.660;2023-08-06T08:38:37;14.30;3.60
42841;DHT22;28491;46.898;7.660;2023-08-06T08:41:02;14.40;5.80
42841;DHT22;28491;46.898;7.660;2023-08-06T08:43:29;14.40;9.80
42841;DHT22;28491;46.898;7.660;2023-08-06T08:46:05;14.40;1.50
42841;DHT22;28491;46.898;7.660;2023-08-06T08:48:33;14.50;12.50
42841;DHT22;28491;46.898;7.660;2023-08-06T08:50:59;14.50;8.50
42841;DHT22;28491;46.898;7.660;2023-08-06T08:53:25;14.50;13.10
42841;DHT22;28491;46.898;7.660;2023-08-06T08:55:52;14.30;15.80
42841;DHT22;28491;46.898;7.660;2023-08-06T08:58:18;14.20;13.60
42841;DHT22;28491;46.898;7.660;2023-08-06T09:00:46;14.20;17.30
42841;DHT22;28491;46.898;7.660;2023-08-06T09:03:11;14.10;14.80
42841;DHT22;28491;46.898;7.660;2023-08-06T09:05:44;14.10;15.90
42841;DHT22;28491;46.898;7.660;2023-08-06T09:08:18;14.10;14.10
42841;DHT22;28491;46.898;7.660;2023-08-06T09:10:48;14.20;16.10
42841;DHT22;28491;46.898;7.660;2023-08-06T09:13:21;14.10;22.00
42841;DHT22;28491;46.898;7.660;2023-08-06T09:16:23;14.20;29.80
42841;DHT22;28491;46.898;7.660;2023-08-06T09:18:49;14.20;26.10
42841;DHT22;28491;46.898;7.660;2023-08-06T09:21:15;14.30;18.40
42841;DHT22;28491;46.898;7.660;2023-08-06T09:23:43;14.30;21.50
42841;DHT22;28491;46.898;7.660;2023-08-06T09:26:11;14.30;9.40
42841;DHT22;28491;46.898;7.660;2023-08-06T09:28:56;14.20;1.00
42841;DHT22;28491;46.898;7.660;2023-08-06T09:31:49;14.20;7.30
42841;DHT22;28491;46.898;7.660;2023-08-06T09:34:42;14.20;5.50
42841;DHT22;28491;46.898;7.660;2023-08-06T09:37:21;14.30;8.60
42841;DHT22;28491;46.898;7.660;2023-08-06T09:39:52;14.40;12.80
42841;DHT22;28491;46.898;7.660;2023-08-06T09:42:27;14.50;1.40
42841;DHT22;28491;46.898;7.660;2023-08-06T09:45:11;14.50;1.00
42841;DHT22;28491;46.898;7.660;2023-08-06T09:47:39;14.40;1.00
42841;DHT22;28491;46.898;7.660;2023-08-06T09:50:05;14.40;1.00
42841;DHT22;28491;46.898;7.660;2023-08-06T09:52:33;14.40;1.00
42841;DHT22;28491;46.898;7.660;2023-08-06T09:54:59;14.40;1.00
42841;DHT22;28491;46.898;7.660;2023-08-06T09:57:26;14.40;2.50
42841;DHT22;28491;46.898;7.660;2023-08-06T09:59:52;14.50;7.90
42841;DHT22;28491;46.898;7.660;2023-08-06T10:02:19;14.50;5.20
42841;DHT22;28491;46.898;7.660;2023-08-06T10:04:47;14.60;6.10
42841;DHT22;28491;46.898;7.660;2023-08-06T10:07:13;14.60;1.00
42841;DHT22;28491;46.898;7.660;2023-08-06T10:09:38;14.60;4.60
42841;DHT22;28491;46.898;7.660;2023-08-06T10:12:04;14.50;1.00
42841;DHT22;28491;46.898;7.660;2023-08-06T10:14:35;14.40;9.10
42841;DHT22;28491;46.898;7.660;2023-08-06T10:17:03;14.30;9.60
42841;DHT22;28491;46.898;7.660;2023-08-06T10:19:29;14.20;23.10
42841;DHT22;28491;46.898;7.660;2023-08-06T10:22:12;14.20;25.10
42841;DHT22;28491;46.898;7.660;2023-08-06T10:24:54;14.10;18.60
42841;DHT22;28491;46.898;7.660;2023-08-06T10:32:51;14.10;36.00
42841;DHT22;28491;46.898;7.660;2023-08-06T10:35:31;14.20;52.00
42841;DHT22;28491;46.898;7.660;2023-08-06T10:38:04;14.20;47.20
42841;DHT22;28491;46.898;7.660;2023-08-06T10:40:29;14.20;55.50
42841;DHT22;28491;46.898;7.660;2023-08-06T10:42:59;14.20;60.60
42841;DHT22;28491;46.898;7.660;2023-08-06T10:45:25;14.30;61.50
42841;DHT22;28491;46.898;7.660;2023-08-06T10:47:54;14.30;53.40
42841;DHT22;28491;46.898;7.660;2023-08-06T10:50:24;14.30;50.10
42841;DHT22;28491;46.898;7.660;2023-08-06T10:52:49;14.40;53.30
42841;DHT22;28491;46.898;7.660;2023-08-06T10:55:26;14.40;55.80
42841;DHT22;28491;46.898;7.660;2023-08-06T10:57:52;14.50;60.40
42841;DHT22;28491;46.898;7.660;2023-08-06T11:00:18;14.60;60.90
42841;DHT22;28491;46.898;7.660;2023-08-06T11:02:43;14.70;51.50
42841;DHT22;28491;46.898;7.660;2023-08-06T11:05:10;14.80;30.40
42841;DHT22;28491;46.898;7.660;2023-08-06T11:07:36;14.80;24.00
42841;DHT22;28491;46.898;7.660;2023-08-06T11:10:07;14.90;17.50
42841;DHT22;28491;46.898;7.660;2023-08-06T11:12:33;15.00;16.60
42841;DHT22;28491;46.898;7.660;2023-08-06T11:15:00;15.00;12.50
42841;DHT22;28491;46.898;7.660;2023-08-06T11:17:30;15.00;21.50
42841;DHT22;28491;46.898;7.660;2023-08-06T11:19:59;15.00;23.30
42841;DHT22;28491;46.898;7.660;2023-08-06T11:22:25;14.90;22.60
42841;DHT22;28491;46.898;7.660;2023-08-06T11:24:50;14.90;26.90
42841;DHT22;28491;46.898;7.660;2023-08-06T11:27:17;14.90;30.60
42841;DHT22;28491;46.898;7.660;2023-08-06T11:29:43;14.80;19.00
42841;DHT22;28491;46.898;7.660;2023-08-06T11:32:09;14.70;2.40
42841;DHT22;28491;46.898;7.660;2023-08-06T11:34:35;14.70;2.90
42841;DHT22;28491;46.898;7.660;2023-08-06T11:37:03;14.60;1.70
42841;DHT22;28491;46.898;7.660;2023-08-06T11:39:32;14.70;15.20
42841;DHT22;28491;46.898;7.660;2023-08-06T11:41:57;14.70;15.40
42841;DHT22;28491;46.898;7.660;2023-08-06T11:44:25;14.70;24.70
42841;DHT22;28491;46.898;7.660;2023-08-06T11:46:54;14.80;27.20
42841;DHT22;28491;46.898;7.660;2023-08-06T11:49:44;14.80;17.40
42841;DHT22;28491;46.898;7.660;2023-08-06T11:52:13;14.70;14.60
42841;DHT22;28491;46.898;7.660;2023-08-06T11:54:39;14.70;1.00
42841;DHT22;28491;46.898;7.660;2023-08-06T11:57:08;14.50;1.00
42841;DHT22;28491;46.898;7.660;2023-08-06T11:59:34;14.50;3.30
42841;DHT22;28491;46.898;7.660;2023-08-06T12:02:03;14.60;7.10
42841;DHT22;28491;46.898;7.660;2023-08-06T12:04:31;14.50;16.30
42841;DHT22;28491;46.898;7.660;2023-08-06T12:07:05;14.50;7.20
42841;DHT22;28491;46.898;7.660;2023-08-06T12:09:33;14.70;14.90
42841;DHT22;28491;46.898;7.660;2023-08-06T12:11:59;14.70;8.30
42841;DHT22;28491;46.898;7.660;2023-08-06T12:14:24;14.80;11.90
42841;DHT22;28491;46.898;7.660;2023-08-06T12:16:50;14.70;1.00
42841;DHT22;28491;46.898;7.660;2023-08-06T12:19:15;14.70;4.90
42841;DHT22;28491;46.898;7.660;2023-08-06T12:21:41;14.60;3.10
42841;DHT22;28491;46.898;7.660;2023-08-06T12:24:06;14.60;7.00
42841;DHT22;28491;46.898;7.660;2023-08-06T12:26:33;14.60;1.00
42841;DHT22;28491;46.898;7.660;2023-08-06T12:28:58;14.50;5.10
42841;DHT22;28491;46.898;7.660;2023-08-06T12:31:24;14.60;1.00
42841;DHT22;28491;46.898;7.660;2023-08-06T12:33:49;14.70;1.00
42841;DHT22;28491;46.898;7.660;2023-08-06T12:36:15;14.60;3.10
42841;DHT22;28491;46.898;7.660;2023-08-06T12:38:40;14.70;1.00
42841;DHT22;28491;46.898;7.660;2023-08-06T12:41:06;14.80;1.00
42841;DHT22;28491;46.898;7.660;2023-08-06T12:43:31;14.80;1.00
42841;DHT22;28491;46.898;7.660;2023-08-06T12:45:57;14.70;1.00
42841;DHT22;28491;46.898;7.660;2023-08-06T12:48:23;14.90;1.00
42841;DHT22;28491;46.898;7.660;2023-08-06T12:50:48;14.80;1.00
42841;DHT22;28491;46.898;7.660;2023-08-06T12:53:14;14.80;1.00
42841;DHT22;28491;46.898;7.660;2023-08-06T12:55:40;14.70;1.00
42841;DHT22;28491;46.898;7.660;2023-08-06T12:58:06;14.70;1.00
42841;DHT22;28491;46.898;7.660;2023-08-06T13:00:31;14.80;1.00
42841;DHT22;28491;46.898;7.660;2023-08-06T13:02:57;14.70;1.00
42841;DHT22;28491;46.898;7.660;2023-08-06T13:05:23;14.50;1.00
42841;DHT22;28491;46.898;7.660;2023-08-06T13:07:49;14.50;1.00
42841;DHT22;28491;46.898;7.660;2023-08-06T13:10:14;14.50;1.00
42841;DHT22;28491;46.898;7.660;2023-08-06T13:12:40;14.40;1.00
42841;DHT22;28491;46.898;7.660;2023-08-06T13:15:06;14.30;13.50
42841;DHT22;28491;46.898;7.660;2023-08-06T13:17:35;14.30;23.60
42841;DHT22;28491;46.898;7.660;2023-08-06T13:20:00;14.30;32.60
42841;DHT22;28491;46.898;7.660;2023-08-06T13:22:26;14.30;40.90
42841;DHT22;28491;46.898;7.660;2023-08-06T13:24:51;14.40;44.00
42841;DHT22;28491;46.898;7.660;2023-08-06T13:27:17;14.40;36.50
42841;DHT22;28491;46.898;7.660;2023-08-06T13:29:42;14.40;19.70
42841;DHT22;28491;46.898;7.660;2023-08-06T13:32:08;14.50;17.60
42841;DHT22;28491;46.898;7.660;2023-08-06T13:34:34;14.40;18.70
42841;DHT22;28491;46.898;7.660;2023-08-06T13:36:59;14.50;23.80
42841;DHT22;28491;46.898;7.660;2023-08-06T13:39:25;14.70;23.50
42841;DHT22;28491;46.898;7.660;2023-08-06T13:41:50;14.90;4.30
42841;DHT22;28491;46.898;7.660;2023-08-06T13:44:16;14.80;9.30
42841;DHT22;28491;46.898;7.660;2023-08-06T13:46:42;14.80;17.30
42841;DHT22;28491;46.898;7.660;2023-08-06T13:49:07;14.90;19.30
42841;DHT22;28491;46.898;7.660;2023-08-06T13:51:33;15.00;12.70
42841;DHT22;28491;46.898;7.660;2023-08-06T13:54:01;15.00;9.20
42841;DHT22;28491;46.898;7.660;2023-08-06T13:56:26;15.20;1.00
42841;DHT22;28491;46.898;7.660;2023-08-06T13:58:52;15.00;1.00
42841;DHT22;28491;46.898;7.660;2023-08-06T14:01:17;15.10;1.00
42841;DHT22;28491;46.898;7.660;2023-08-06T14:03:46;15.20;1.00
42841;DHT22;28491;46.898;7.660;2023-08-06T14:06:12;15.30;7.90
42841;DHT22;28491;46.898;7.660;2023-08-06T14:08:37;15.50;10.10
42841;DHT22;28491;46.898;7.660;2023-08-06T14:11:03;15.60;1.00
42841;DHT22;28491;46.898;7.660;2023-08-06T14:13:28;15.60;1.00
42841;DHT22;28491;46.898;7.660;2023-08-06T14:15:54;15.40;1.00
42841;DHT22;28491;46.898;7.660;2023-08-06T14:18:19;15.40;1.00
42841;DHT22;28491;46.898;7.660;2023-08-06T14:20:45;15.30;1.00
42841;DHT22;28491;46.898;7.660;2023-08-06T14:23:11;15.20;1.00
42841;DHT22;28491;46.898;7.660;2023-08-06T14:25:37;15.20;1.00
42841;DHT22;28491;46.898;7.660;2023-08-06T14:28:03;15.20;1.00
42841;DHT22;28491;46.898;7.660;2023-08-06T14:30:29;15.10;1.00
42841;DHT22;28491;46.898;7.660;2023-08-06T14:32:54;15.20;1.00
42841;DHT22;28491;46.898;7.660;2023-08-06T14:35:20;15.10;1.00
42841;DHT22;28491;46.898;7.660;2023-08-06T14:37:46;15.20;1.00
42841;DHT22;28491;46.898;7.660;2023-08-06T14:40:11;15.00;1.00
42841;DHT22;28491;46.898;7.660;2023-08-06T14:42:37;15.00;1.00
42841;DHT22;28491;46.898;7.660;2023-08-06T14:45:03;14.80;1.00
42841;DHT22;28491;46.898;7.660;2023-08-06T14:47:29;14.80;1.00
42841;DHT22;28491;46.898;7.660;2023-08-06T14:49:54;14.70;1.00
42841;DHT22;28491;46.898;7.660;2023-08-06T14:52:20;14.70;1.00
42841;DHT22;28491;46.898;7.660;2023-08-06T14:54:46;14.80;1.00
42841;DHT22;28491;46.898;7.660;2023-08-06T14:57:12;14.80;1.00
42841;DHT22;28491;46.898;7.660;2023-08-06T14:59:39;14.70;1.00
42841;DHT22;28491;46.898;7.660;2023-08-06T15:02:05;14.70;1.00
42841;DHT22;28491;46.898;7.660;2023-08-06T15:04:31;14.50;7.30
42841;DHT22;28491;46.898;7.660;2023-08-06T15:06:57;14.50;20.40
42841;DHT22;28491;46.898;7.660;2023-08-06T15:09:22;14.30;32.80
42841;DHT22;28491;46.898;7.660;2023-08-06T15:11:48;14.10;41.90
42841;DHT22;28491;46.898;7.660;2023-08-06T15:14:14;14.10;46.40
42841;DHT22;28491;46.898;7.660;2023-08-06T15:16:40;14.20;51.70
42841;DHT22;28491;46.898;7.660;2023-08-06T15:19:06;14.20;60.30
42841;DHT22;28491;46.898;7.660;2023-08-06T15:21:31;14.30;55.30
42841;DHT22;28491;46.898;7.660;2023-08-06T15:23:57;14.30;50.80
42841;DHT22;28491;46.898;7.660;2023-08-06T15:26:22;14.30;42.80
42841;DHT22;28491;46.898;7.660;2023-08-06T15:28:48;14.40;38.10
42841;DHT22;28491;46.898;7.660;2023-08-06T15:31:14;14.40;36.30
42841;DHT22;28491;46.898;7.660;2023-08-06T15:33:39;14.40;29.40
42841;DHT22;28491;46.898;7.660;2023-08-06T15:36:05;14.30;31.30
42841;DHT22;28491;46.898;7.660;2023-08-06T15:38:31;14.40;33.00
42841;DHT22;28491;46.898;7.660;2023-08-06T15:40:56;14.40;26.50
42841;DHT22;28491;46.898;7.660;2023-08-06T15:43:22;14.50;22.30
42841;DHT22;28491;46.898;7.660;2023-08-06T15:45:48;14.50;19.30
42841;DHT22;28491;46.898;7.660;2023-08-06T15:48:13;14.50;16.70